createdAt,value
2018-07-10T00:03:14.631Z,7.17
2018-07-10T00:15:49.260Z,6.80
2018-07-10T00:18:18.153Z,6.30
2018-07-10T00:20:47.084Z,7.33
2018-07-10T00:23:16.057Z,6.70
2018-07-10T00:25:44.826Z,7.70
2018-07-10T00:28:13.735Z,6.70
2018-07-10T00:30:42.706Z,6.83
2018-07-10T00:33:11.771Z,7.53
2018-07-10T00:35:40.686Z,7.50
2018-07-10T00:38:26.436Z,7.50
2018-07-10T00:40:55.390Z,6.80
2018-07-10T00:43:24.187Z,7.60
2018-07-10T00:45:53.119Z,7.67
2018-07-10T00:48:22.056Z,8.27
2018-07-10T00:50:50.986Z,6.80
2018-07-10T00:53:19.883Z,7.57
2018-07-10T00:55:48.835Z,8.27
2018-07-10T00:58:17.711Z,7.90
2018-07-10T01:00:51.091Z,8.50
2018-07-10T01:03:21.828Z,7.93
2018-07-10T01:05:50.667Z,8.53
2018-07-10T01:08:19.816Z,7.67
2018-07-10T01:10:56.203Z,6.93
2018-07-10T01:13:25.179Z,7.80
2018-07-10T01:15:54.087Z,7.07
2018-07-10T01:18:26.763Z,7.60
2018-07-10T01:20:55.803Z,7.50
2018-07-10T01:23:29.026Z,7.17
2018-07-10T01:25:59.919Z,7.40
2018-07-10T01:28:29.740Z,8.00
2018-07-10T01:30:58.676Z,7.50
2018-07-10T01:33:27.603Z,7.90
2018-07-10T01:35:56.839Z,8.43
2018-07-10T01:38:25.831Z,8.20
2018-07-10T01:40:54.806Z,7.30
2018-07-10T01:43:23.759Z,8.80
2018-07-10T01:45:52.708Z,7.47
2018-07-10T01:48:21.700Z,7.60
2018-07-10T01:50:50.663Z,7.37
2018-07-10T01:53:19.831Z,8.77
2018-07-10T01:55:48.834Z,8.03
2018-07-10T01:58:17.937Z,7.67
2018-07-10T02:00:46.801Z,8.40
2018-07-10T02:03:15.771Z,8.07
2018-07-10T02:05:44.751Z,8.23
2018-07-10T02:08:13.631Z,7.70
2018-07-10T02:10:42.639Z,7.40
2018-07-10T02:13:11.519Z,7.63
2018-07-10T02:15:40.528Z,8.47
2018-07-10T02:18:09.345Z,8.70
2018-07-10T02:20:52.187Z,9.07
2018-07-10T02:23:21.823Z,8.90
2018-07-10T02:25:50.875Z,8.43
2018-07-10T02:28:20.032Z,8.70
2018-07-10T02:30:49.323Z,8.90
2018-07-10T02:33:18.323Z,9.07
2018-07-10T02:35:47.312Z,8.70
2018-07-10T02:38:16.336Z,8.10
2018-07-10T02:40:46.043Z,7.90
2018-07-10T02:43:15.303Z,8.60
2018-07-10T02:45:44.377Z,7.83
2018-07-10T02:48:13.375Z,8.40
2018-07-10T02:50:44.171Z,8.97
2018-07-10T02:53:13.120Z,8.53
2018-07-10T02:55:44.330Z,9.23
2018-07-10T02:58:13.383Z,8.43
2018-07-10T03:00:42.322Z,7.83
2018-07-10T03:03:11.107Z,8.67
2018-07-10T03:05:40.287Z,8.30
2018-07-10T03:08:09.360Z,8.70
2018-07-10T03:10:38.388Z,8.73
2018-07-10T03:13:07.202Z,8.00
2018-07-10T03:15:36.175Z,8.47
2018-07-10T03:18:05.148Z,9.13
2018-07-10T03:20:35.494Z,9.07
2018-07-10T03:23:04.413Z,9.27
2018-07-10T03:25:33.294Z,8.70
2018-07-10T03:28:02.219Z,9.27
2018-07-10T03:30:31.196Z,8.70
2018-07-10T03:33:00.068Z,8.50
2018-07-10T03:35:28.988Z,8.43
2018-07-10T03:37:58.288Z,8.40
2018-07-10T03:40:28.696Z,9.60
2018-07-10T03:42:57.651Z,8.97
2018-07-10T03:45:27.144Z,10.00
2018-07-10T03:47:58.347Z,9.80
2018-07-10T03:50:28.011Z,9.97
2018-07-10T03:52:57.161Z,10.10
2018-07-10T03:55:26.113Z,9.00
2018-07-10T03:57:56.835Z,9.60
2018-07-10T04:00:26.386Z,9.50
2018-07-10T04:02:55.468Z,8.90
2018-07-10T04:05:24.384Z,9.20
2018-07-10T04:07:55.913Z,9.90
2018-07-10T04:10:32.182Z,10.13
2018-07-10T04:13:08.704Z,8.63
2018-07-10T04:15:38.705Z,9.93
2018-07-10T04:18:11.614Z,8.33
2018-07-10T04:20:56.850Z,9.77
2018-07-10T04:23:32.543Z,9.07
2018-07-10T04:26:05.135Z,8.97
2018-07-10T04:28:35.286Z,9.53
2018-07-10T04:31:21.033Z,10.73
2018-07-10T04:33:49.962Z,11.13
2018-07-10T04:36:19.266Z,9.70
2018-07-10T04:38:53.380Z,10.47
2018-07-10T04:41:32.978Z,10.20
2018-07-10T04:44:08.843Z,9.47
2018-07-10T04:46:50.606Z,10.30
2018-07-10T04:49:29.143Z,10.53
2018-07-10T04:52:35.131Z,10.30
2018-07-10T04:55:11.800Z,9.40
2018-07-10T04:58:53.969Z,9.43
2018-07-10T05:01:33.007Z,9.53
2018-07-10T05:04:03.516Z,9.83
2018-07-10T05:06:36.352Z,9.23
2018-07-10T05:09:06.100Z,8.60
2018-07-10T05:11:39.279Z,10.57
2018-07-10T05:14:08.356Z,9.83
2018-07-10T05:16:37.342Z,10.13
2018-07-10T05:19:06.352Z,9.67
2018-07-10T05:21:35.790Z,10.90
2018-07-10T05:24:04.590Z,10.40
2018-07-10T05:26:33.596Z,10.33
2018-07-10T05:29:02.619Z,10.70
2018-07-10T05:31:33.902Z,10.60
2018-07-10T05:34:02.860Z,11.10
2018-07-10T05:36:32.371Z,9.70
2018-07-10T05:39:05.998Z,10.17
2018-07-10T05:41:42.162Z,10.30
2018-07-10T05:44:15.653Z,10.40
2018-07-10T05:46:44.595Z,9.87
2018-07-10T05:49:13.571Z,9.63
2018-07-10T05:51:49.386Z,10.77
2018-07-10T05:54:18.397Z,10.57
2018-07-10T05:56:47.327Z,9.80
2018-07-10T05:59:16.327Z,9.63
2018-07-10T06:01:45.275Z,10.10
2018-07-10T06:04:16.894Z,9.80
2018-07-10T06:06:46.711Z,10.80
2018-07-10T06:09:17.147Z,11.07
2018-07-10T06:11:46.370Z,10.53
2018-07-10T06:14:15.247Z,10.57
2018-07-10T06:16:44.424Z,9.57
2018-07-10T06:19:13.394Z,9.60
2018-07-10T06:21:47.956Z,11.10
2018-07-10T06:24:24.720Z,9.70
2018-07-10T06:27:02.501Z,11.70
2018-07-10T06:30:00.491Z,10.60
2018-07-10T06:32:40.808Z,11.23
2018-07-10T06:35:09.800Z,9.67
2018-07-10T06:37:43.031Z,10.67
2018-07-10T06:40:11.975Z,9.70
2018-07-10T06:43:48.897Z,10.87
2018-07-10T06:46:21.748Z,10.00
2018-07-10T06:48:53.956Z,9.73
2018-07-10T06:51:22.983Z,10.93
2018-07-10T06:53:57.187Z,9.10
2018-07-10T06:56:28.112Z,10.00
2018-07-10T06:58:57.807Z,11.00
2018-07-10T07:01:26.768Z,10.87
2018-07-10T07:04:00.103Z,9.53
2018-07-10T07:06:29.810Z,10.87
2018-07-10T07:08:58.823Z,10.10
2018-07-10T07:11:27.795Z,10.20
2018-07-10T07:13:56.984Z,12.40
2018-07-10T07:16:25.957Z,10.00
2018-07-10T07:18:54.984Z,9.57
2018-07-10T07:21:23.904Z,9.17
2018-07-10T07:23:52.943Z,10.37
2018-07-10T07:26:21.902Z,10.20
2018-07-10T07:28:51.015Z,10.70
2018-07-10T07:31:19.919Z,10.90
2018-07-10T07:33:48.902Z,10.57
2018-07-10T07:36:17.816Z,10.57
2018-07-10T07:38:46.722Z,9.50
2018-07-10T07:41:15.711Z,9.07
2018-07-10T07:43:44.753Z,11.37
2018-07-10T07:46:13.620Z,11.07
2018-07-10T07:48:43.336Z,10.30
2018-07-10T07:51:12.450Z,10.87
2018-07-10T07:53:41.977Z,10.23
2018-07-10T07:56:11.032Z,9.90
2018-07-10T07:58:39.999Z,9.97
2018-07-10T08:01:08.952Z,9.70
2018-07-10T08:03:37.980Z,10.40
2018-07-10T08:06:07.588Z,11.27
2018-07-10T08:08:36.904Z,10.50
2018-07-10T08:11:06.539Z,9.30
2018-07-10T08:13:35.761Z,9.93
2018-07-10T08:16:04.929Z,10.33
2018-07-10T08:18:33.936Z,11.57
2018-07-10T08:21:02.793Z,9.97
2018-07-10T08:23:32.174Z,11.23
2018-07-10T08:26:01.154Z,10.87
2018-07-10T08:28:30.143Z,9.50
2018-07-10T08:31:00.583Z,8.10
2018-07-10T08:33:29.644Z,7.93
2018-07-10T08:35:58.600Z,8.10
2018-07-10T08:38:39.967Z,8.60
2018-07-10T08:41:24.600Z,8.07
2018-07-10T08:43:54.547Z,9.30
2018-07-10T08:46:27.799Z,8.20
2018-07-10T08:48:57.012Z,6.70
2018-07-10T08:51:26.007Z,7.20
2018-07-10T08:53:55.416Z,7.93
2018-07-10T08:56:24.830Z,7.03
2018-07-10T08:58:53.840Z,8.13
2018-07-10T09:01:23.147Z,7.90
2018-07-10T09:03:52.159Z,6.70
2018-07-10T09:06:21.283Z,6.63
2018-07-10T09:08:50.276Z,6.90
2018-07-10T09:11:19.256Z,7.40
2018-07-10T09:13:48.362Z,7.13
2018-07-10T09:16:17.263Z,7.30
2018-07-10T09:18:46.365Z,6.40
2018-07-10T09:21:16.236Z,6.90
2018-07-10T09:23:45.555Z,7.60
2018-07-10T09:26:14.507Z,7.20
2018-07-10T09:28:43.511Z,7.50
2018-07-10T09:31:12.496Z,7.10
2018-07-10T09:33:41.366Z,6.27
2018-07-10T09:36:10.343Z,7.63
2018-07-10T09:38:39.315Z,7.30
2018-07-10T09:41:08.528Z,6.60
2018-07-10T09:43:38.342Z,6.80
2018-07-10T09:46:07.302Z,7.13
2018-07-10T09:48:36.304Z,7.00
2018-07-10T09:51:05.698Z,6.90
2018-07-10T09:53:34.687Z,5.73
2018-07-10T09:56:03.632Z,5.53
2018-07-10T09:58:32.691Z,5.30
2018-07-10T10:01:08.407Z,6.20
2018-07-10T10:03:37.953Z,6.07
2018-07-10T10:06:06.963Z,5.57
2018-07-10T10:08:35.928Z,6.17
2018-07-10T10:11:04.876Z,6.63
2018-07-10T10:13:33.811Z,6.40
2018-07-10T10:16:02.715Z,6.97
2018-07-10T10:18:31.960Z,5.70
2018-07-10T10:21:00.899Z,6.17
2018-07-10T10:23:29.895Z,5.80
2018-07-10T10:25:58.863Z,5.17
2018-07-10T10:28:27.686Z,5.50
2018-07-10T10:30:56.980Z,5.20
2018-07-10T10:33:26.112Z,5.10
2018-07-10T10:35:55.056Z,6.17
2018-07-10T10:38:24.050Z,6.20
2018-07-10T10:40:53.363Z,6.23
2018-07-10T10:43:22.869Z,6.47
2018-07-10T10:45:51.687Z,5.97
2018-07-10T10:48:20.651Z,6.10
2018-07-10T10:50:50.890Z,6.27
2018-07-10T10:53:20.673Z,5.63
2018-07-10T10:55:49.485Z,6.20
2018-07-10T10:58:20.043Z,5.63
2018-07-10T11:00:49.024Z,6.30
2018-07-10T11:03:18.064Z,6.20
2018-07-10T11:05:47.089Z,6.07
2018-07-10T11:08:16.074Z,6.07
2018-07-10T11:10:46.025Z,5.80
2018-07-10T11:13:16.748Z,5.83
2018-07-10T11:15:48.352Z,6.40
2018-07-10T11:18:27.098Z,6.13
2018-07-10T11:21:04.624Z,6.60
2018-07-10T11:23:51.351Z,5.33
2018-07-10T11:26:31.572Z,6.53
2018-07-10T11:29:01.795Z,6.47
2018-07-10T11:37:43.576Z,6.70
2018-07-10T11:40:18.119Z,6.57
2018-07-10T11:42:58.243Z,6.30
2018-07-10T11:45:27.183Z,5.67
2018-07-10T11:47:56.243Z,6.30
2018-07-10T11:50:25.299Z,5.87
2018-07-10T11:52:54.187Z,6.13
2018-07-10T11:55:23.089Z,6.70
2018-07-10T11:57:52.175Z,6.27
2018-07-10T12:00:21.416Z,6.37
2018-07-10T12:02:50.520Z,6.93
2018-07-10T12:05:20.588Z,5.93
2018-07-10T12:07:54.719Z,6.37
2018-07-10T12:10:28.020Z,5.90
2018-07-10T12:12:56.957Z,5.40
2018-07-10T12:15:25.694Z,5.47
2018-07-10T12:17:57.708Z,5.70
2018-07-10T12:20:32.657Z,5.33
2018-07-10T12:23:04.760Z,5.40
2018-07-10T12:25:38.943Z,5.67
2018-07-10T12:28:09.076Z,4.90
2018-07-10T12:30:38.520Z,6.43
2018-07-10T12:33:07.547Z,6.60
2018-07-10T12:35:36.546Z,6.30
2018-07-10T12:38:05.780Z,5.40
2018-07-10T12:40:35.497Z,5.37
2018-07-10T12:43:05.029Z,5.60
2018-07-10T12:45:34.518Z,6.40
2018-07-10T12:48:03.548Z,6.03
2018-07-10T12:50:33.807Z,5.03
2018-07-10T12:53:03.286Z,6.70
2018-07-10T12:55:34.680Z,5.93
2018-07-10T12:58:03.727Z,5.60
2018-07-10T13:00:35.636Z,5.80
2018-07-10T13:03:06.632Z,6.40
2018-07-10T13:05:51.537Z,6.30
2018-07-10T13:08:20.671Z,5.50
2018-07-10T13:10:49.668Z,5.33
2018-07-10T13:13:18.946Z,5.97
2018-07-10T13:15:47.864Z,5.47
2018-07-10T13:18:20.096Z,6.30
2018-07-10T13:20:49.107Z,6.07
2018-07-10T13:23:17.986Z,6.00
2018-07-10T13:25:46.840Z,5.20
2018-07-10T13:28:15.819Z,6.60
2018-07-10T13:30:45.123Z,6.00
2018-07-10T13:33:14.328Z,6.17
2018-07-10T13:35:43.326Z,6.13
2018-07-10T13:38:12.787Z,6.17
2018-07-10T13:40:41.763Z,5.73
2018-07-10T13:43:10.756Z,6.03
2018-07-10T13:45:39.795Z,4.97
2018-07-10T13:48:08.855Z,6.10
2018-07-10T13:50:37.710Z,6.27
2018-07-10T13:53:06.660Z,6.90
2018-07-10T13:55:35.668Z,6.70
2018-07-10T13:58:12.841Z,6.77
2018-07-10T14:00:45.638Z,6.10
2018-07-10T14:03:14.616Z,6.30
2018-07-10T14:05:43.567Z,6.30
2018-07-10T14:08:12.605Z,6.70
2018-07-10T14:10:41.529Z,6.40
2018-07-10T14:13:10.504Z,6.37
2018-07-10T14:15:39.511Z,6.50
2018-07-10T14:18:08.527Z,6.60
2018-07-10T14:20:47.897Z,6.40
2018-07-10T14:23:16.689Z,6.03
2018-07-10T14:25:46.699Z,6.70
2018-07-10T14:28:16.467Z,6.80
2018-07-10T14:30:45.432Z,6.00
2018-07-10T14:33:14.439Z,6.03
2018-07-10T14:35:44.113Z,6.70
2018-07-10T14:38:30.953Z,6.57
2018-07-10T14:41:07.004Z,6.83
2018-07-10T14:43:43.422Z,7.70
2018-07-10T14:46:23.941Z,6.77
2018-07-10T14:48:57.199Z,6.40
2018-07-10T14:51:41.900Z,6.80
2018-07-10T14:54:11.384Z,6.87
2018-07-10T14:56:41.199Z,9.73
2018-07-10T14:59:10.628Z,9.33
2018-07-10T15:01:40.314Z,7.27
2018-07-10T15:04:09.520Z,8.20
2018-07-10T15:06:38.522Z,6.90
2018-07-10T15:09:09.028Z,8.20
2018-07-10T15:11:38.848Z,9.27
2018-07-10T15:14:10.089Z,7.00
2018-07-10T15:16:44.779Z,6.90
2018-07-10T15:19:14.679Z,7.13
2018-07-10T15:21:43.752Z,6.53
2018-07-10T15:24:12.703Z,8.90
2018-07-10T15:26:41.968Z,7.70
2018-07-10T15:29:15.507Z,7.10
2018-07-10T15:31:45.171Z,10.57
2018-07-10T15:34:14.332Z,7.80
2018-07-10T15:36:43.351Z,6.47
2018-07-10T15:39:12.373Z,6.60
2018-07-10T15:41:41.418Z,6.53
2018-07-10T15:44:10.326Z,7.20
2018-07-10T15:46:39.254Z,7.00
2018-07-10T15:49:08.225Z,6.23
2018-07-10T15:51:37.134Z,6.90
2018-07-10T15:54:06.624Z,5.43
2018-07-10T15:56:35.688Z,6.40
2018-07-10T15:59:04.684Z,5.30
2018-07-10T16:01:33.736Z,5.60
2018-07-10T16:04:02.948Z,6.00
2018-07-10T16:06:33.229Z,5.57
2018-07-10T16:09:21.428Z,6.57
2018-07-10T16:11:56.623Z,6.27
2018-07-10T16:14:26.972Z,5.70
2018-07-10T16:16:56.400Z,5.20
2018-07-10T16:20:28.929Z,6.50
2018-07-10T16:22:57.773Z,6.20
2018-07-10T16:25:29.822Z,6.87
2018-07-10T16:28:02.747Z,6.53
2018-07-10T16:30:31.807Z,5.70
2018-07-10T16:33:00.851Z,6.10
2018-07-10T16:35:30.372Z,6.40
2018-07-10T16:38:01.511Z,5.90
2018-07-10T16:40:30.640Z,6.67
2018-07-10T16:42:59.623Z,7.70
2018-07-10T16:45:36.363Z,6.37
2018-07-10T16:48:32.189Z,6.43
2018-07-10T16:51:08.110Z,7.50
2018-07-10T16:53:37.712Z,7.73
2018-07-10T16:56:06.756Z,7.93
2018-07-10T16:58:39.487Z,7.53
2018-07-10T17:01:09.302Z,7.47
2018-07-10T17:03:38.519Z,7.13
2018-07-10T17:06:07.505Z,8.47
2018-07-10T17:08:36.579Z,7.13
2018-07-10T17:11:05.606Z,7.70
2018-07-10T17:13:34.527Z,7.57
2018-07-10T17:16:03.561Z,7.40
2018-07-10T17:18:32.644Z,7.63
2018-07-10T17:21:01.660Z,7.47
2018-07-10T17:23:30.776Z,7.60
2018-07-10T17:25:59.648Z,8.17
2018-07-10T17:28:29.335Z,7.03
2018-07-10T17:30:58.604Z,7.43
2018-07-10T17:33:27.671Z,7.50
2018-07-10T17:35:56.492Z,7.30
2018-07-10T17:38:25.579Z,7.27
2018-07-10T17:40:55.204Z,6.60
2018-07-10T17:43:24.756Z,7.53
2018-07-10T17:45:54.152Z,8.10
2018-07-10T17:48:23.175Z,8.67
2018-07-10T17:50:52.988Z,7.53
2018-07-10T17:53:22.112Z,8.17
2018-07-10T17:55:51.107Z,8.53
2018-07-10T17:58:22.079Z,8.37
2018-07-10T18:00:51.107Z,7.10
2018-07-10T18:03:20.008Z,7.80
2018-07-10T18:05:48.826Z,7.60
2018-07-10T18:08:17.831Z,9.80
2018-07-10T18:10:46.836Z,7.60
2018-07-10T18:13:15.823Z,7.90
2018-07-10T18:15:44.819Z,8.87
2018-07-10T18:18:13.803Z,7.70
2018-07-10T18:20:42.688Z,9.27
2018-07-10T18:23:12.096Z,7.70
2018-07-10T18:25:41.120Z,7.20
2018-07-10T18:28:10.173Z,8.40
2018-07-10T18:30:39.088Z,7.03
2018-07-10T18:33:08.023Z,6.43
2018-07-10T18:35:37.204Z,5.90
2018-07-10T18:38:06.306Z,5.50
2018-07-10T18:40:35.272Z,5.93
2018-07-10T18:43:04.279Z,5.07
2018-07-10T18:45:33.244Z,5.10
2018-07-10T18:48:02.365Z,4.40
2018-07-10T18:50:31.425Z,4.80
2018-07-10T18:53:00.936Z,4.63
2018-07-10T18:55:29.961Z,5.20
2018-07-10T18:58:06.560Z,6.20
2018-07-10T19:00:53.580Z,5.13
2018-07-10T19:03:23.045Z,5.33
2018-07-10T19:05:55.170Z,3.43
2018-07-10T19:08:24.372Z,2.30
2018-07-10T19:10:53.896Z,2.53
2018-07-10T19:13:23.836Z,2.00
2018-07-10T19:15:54.364Z,2.07
2018-07-10T19:18:23.402Z,1.83
2018-07-10T19:21:00.922Z,1.70
2018-07-10T19:23:43.392Z,1.50
2018-07-10T19:26:13.116Z,1.40
2018-07-10T19:28:43.076Z,1.70
2018-07-10T19:31:16.388Z,1.60
2018-07-10T19:33:54.533Z,1.40
2018-07-10T19:36:24.311Z,1.30
2018-07-10T19:38:53.801Z,1.30
2018-07-10T19:41:24.052Z,1.27
2018-07-10T19:43:53.749Z,1.17
2018-07-10T19:46:22.843Z,1.07
2018-07-10T19:48:54.724Z,1.60
2018-07-10T19:51:26.756Z,1.30
2018-07-10T19:54:09.348Z,1.33
2018-07-10T19:56:38.745Z,0.90
2018-07-10T19:59:10.032Z,2.20
2018-07-10T20:01:58.815Z,1.03
2018-07-10T20:05:38.959Z,1.20
2018-07-10T20:08:15.907Z,0.80
2018-07-10T20:10:56.025Z,0.73
2018-07-10T20:13:40.513Z,0.70
2018-07-10T20:16:51.705Z,1.00
2018-07-10T20:19:29.767Z,0.97
2018-07-10T20:24:34.536Z,1.07
2018-07-10T20:27:21.425Z,1.00
2018-07-10T20:30:11.793Z,1.10
2018-07-10T20:32:52.724Z,1.10
2018-07-10T20:35:31.321Z,0.90
2018-07-10T20:38:00.631Z,1.17
2018-07-10T20:40:30.749Z,1.57
2018-07-10T20:43:18.447Z,1.10
2018-07-10T20:45:52.383Z,1.67
2018-07-10T20:48:59.041Z,1.80
2018-07-10T20:52:00.863Z,1.47
2018-07-10T20:55:06.195Z,1.60
2018-07-10T20:57:48.368Z,1.73
2018-07-10T21:00:17.364Z,1.30
2018-07-10T21:04:03.179Z,1.90
2018-07-10T21:07:07.159Z,2.80
2018-07-10T21:10:45.600Z,4.40
2018-07-10T21:13:39.160Z,2.47
2018-07-10T21:16:19.329Z,3.20
2018-07-10T21:20:01.168Z,3.07
2018-07-10T21:22:45.380Z,3.17
2018-07-10T21:25:25.664Z,3.53
2018-07-10T21:28:14.888Z,2.30
2018-07-10T21:30:57.447Z,3.20
2018-07-10T21:33:37.227Z,2.60
2018-07-10T21:36:16.597Z,3.13
2018-07-10T21:40:04.659Z,3.47
2018-07-10T21:46:00.403Z,3.00
2018-07-10T21:48:48.387Z,3.00
2018-07-10T21:51:17.247Z,2.80
2018-07-10T21:53:46.335Z,2.70
2018-07-10T21:56:15.340Z,3.07
2018-07-10T21:58:44.889Z,2.83
2018-07-10T22:02:04.605Z,3.20
2018-07-10T22:04:35.879Z,3.00
2018-07-10T22:07:10.591Z,3.10
2018-07-10T22:09:40.372Z,3.30
2018-07-10T22:12:13.800Z,3.20
2018-07-10T22:14:43.245Z,3.53
2018-07-10T22:17:21.030Z,3.60
2018-07-10T22:19:51.182Z,4.10
2018-07-10T22:22:23.978Z,3.00
2018-07-10T22:24:54.141Z,2.77
2018-07-10T22:27:23.353Z,3.20
2018-07-10T22:30:03.416Z,3.03
2018-07-10T22:32:42.836Z,3.07
2018-07-10T22:35:12.612Z,3.33
2018-07-10T22:37:41.596Z,3.27
2018-07-10T22:40:10.607Z,3.07
2018-07-10T22:42:39.561Z,3.80
2018-07-10T22:45:08.539Z,3.33
2018-07-10T22:47:39.120Z,3.80
2018-07-10T22:50:26.123Z,3.40
2018-07-10T22:53:00.194Z,4.40
2018-07-10T22:55:31.472Z,3.63
2018-07-10T22:58:06.398Z,4.17
2018-07-10T23:00:36.561Z,4.00
2018-07-10T23:03:24.481Z,3.77
2018-07-10T23:05:54.263Z,4.53
2018-07-10T23:08:33.229Z,4.23
2018-07-10T23:11:03.912Z,4.10
2018-07-10T23:13:36.616Z,4.20
2018-07-10T23:16:05.795Z,3.63
2018-07-10T23:18:34.790Z,3.70
2018-07-10T23:21:04.652Z,3.77
2018-07-10T23:23:34.537Z,4.67
2018-07-10T23:26:03.563Z,3.90
2018-07-10T23:28:32.397Z,4.43
2018-07-10T23:31:03.107Z,4.17
2018-07-10T23:33:32.135Z,4.03
2018-07-10T23:36:02.886Z,4.20
2018-07-10T23:38:48.455Z,4.10
2018-07-10T23:42:01.364Z,3.73
2018-07-10T23:44:40.047Z,4.23
2018-07-10T23:47:20.711Z,4.07
2018-07-10T23:50:07.795Z,3.50
2018-07-10T23:53:27.287Z,4.17
2018-07-10T23:55:56.285Z,4.10
2018-07-10T23:58:25.231Z,3.63
